EGYM

RAF Marham Airport

Marham, United Kingdom
TAF EGYM 261057Z 2612/2621 26016G26KT 9999 SCT030 PROB30 TEMPO 2612/2618 7000 -SHRA SCT020 BECMG 2618/2620 23006KT
Issued Valid From Valid To
Apr-26 @ 10:57 UTC
(2 hours ago)
Apr-26 @ 12:00 UTC
(an hour ago)
Apr-26 @ 21:00 UTC
(in 8 hours)
Apr-26 @ 12:00 to Apr-26 @ 18:00
TAF EGYM 261057Z 2612/2621 26016G26KT 9999 SCT030
Wind Visibility Clouds
260° at 16 knots
 Gusting to 26 knots
10,000+ meters
  • Scattered at 3,000' AGL
Temporary  (Probability 30%) Apr-26 @ 12:00 to Apr-26 @ 18:00
PROB30 TEMPO 2612/2618 7000 -SHRA SCT020
Visibility Clouds Conditions
7,001 meters
  • Scattered at 2,000' AGL
  • Light Rain
Becoming Apr-26 @ 18:00 to Apr-26 @ 21:00
BECMG 2618/2620 23006KT
Wind Visibility Clouds
230° at 6 knots 10,000+ meters
  • Scattered at 3,000' AGL
TAF EGYM 261057Z 2612/2621 26016G26KT 9999 SCT030 PROB30 TEMPO 2612/2618 7000 -SHRA SCT020 BECMG 2618/2620 23006KT
Issued Apr-26 @ 10:57 UTC
(2 hours ago)
Valid From Apr-26 @ 12:00 UTC
(an hour ago)
Valid To Apr-26 @ 21:00 UTC
(in 8 hours)
Apr-26 @ 12:00 - Apr-26 @ 18:00
Wind Visibility
260° at 16 knots
 Gusting to 26 knots
10,000+ meters
Clouds
  • Scattered at 3,000' AGL
Probability 30% Temporary Apr-26 @ 12:00 - Apr-26 @ 18:00
Clouds
  • Scattered at 2,000' AGL
Conditions
  • Light Rain
Becoming Apr-26 @ 18:00 - Apr-26 @ 21:00
Wind Visibility
230° at 6 knots 10,000+ meters
Clouds
  • Scattered at 3,000' AGL